Flight Track Log - Related Links

Times and Time Zones

All times are in EST time to prevent confusion due to time zone crossing. See the EJA691 flight status page for this flight to view local times or setup timezone preferences in your user account.

Time Position Orientation Groundspeed Altitude Reporting Facility
EST Latitude Longitude Course Direction KTS MPH feet Rate Location/Type
Tue 07:46:30 PM 39.7167 -86.2833 218° Southwest 155 178 1,300  Level Indianapolis TRACON
Tue 07:46:48 PM 39.7000 -86.3000 193° South 153 176 2,700 4,557 Climbing Indianapolis TRACON
Tue 07:47:49 PM 39.6833 -86.3500 247° West 143 165 7,300 4,215 Climbing Indianapolis TRACON
Tue 07:48:49 PM 39.6500 -86.4000 229° Southwest 184 212 11,200 2,342 Climbing Indianapolis TRACON
Tue 07:50:15 PM 39.7375 -86.4089 356° North 287 330 13,000 1,030 Climbing Chicago Center
Tue 07:51:03 PM 39.8053 -86.3772 20° North 302 348 13,500 1,036 Climbing Indianapolis Center
Tue 07:52:05 PM 39.8953 -86.3317 21° North 328 377 14,900 732 Climbing Indianapolis Center
Tue 07:53:06 PM 39.9628 -86.2117 54° Northeast 393 452 15,000 49 Climbing Indianapolis Center
Tue 07:54:08 PM 40.0281 -86.1000 53° Northeast 390 449 15,000  Level Indianapolis Center
Tue 07:55:10 PM 40.0950 -85.9900 51° Northeast 388 447 15,000  Level Indianapolis Center
Tue 07:56:12 PM 40.1733 -85.8606 52° Northeast 388 447 15,000  Level Indianapolis Center
Tue 07:57:14 PM 40.2389 -85.7486 52° Northeast 382 440 15,000  Level Indianapolis Center
Tue 07:58:15 PM 40.3008 -85.6444 52° Northeast 377 434 15,000  Level Indianapolis Center
Tue 07:59:17 PM 40.3639 -85.5378 52° Northeast 376 433 15,000  Level Indianapolis Center
Tue 08:00:19 PM 40.4261 -85.4308 53° Northeast 374 430 15,000  Level Indianapolis Center
Tue 08:01:21 PM 40.4919 -85.3178 53° Northeast 373 429 15,000 49 Level Indianapolis Center
Tue 08:02:22 PM 40.5667 -85.1939 52° Northeast 373 429 15,100 49 Climbing Indianapolis Center
Tue 08:03:24 PM 40.6303 -85.0831 53° Northeast 377 434 15,100  Level Indianapolis Center
Tue 08:04:26 PM 40.6953 -84.9714 52° Northeast 379 436 15,100 -39 Level Indianapolis Center
Tue 08:05:58 PM 40.7931 -84.8022 53° Northeast 384 442 15,000 -39 Descending Chicago Center
Tue 08:07:00 PM 40.8564 -84.6922 53° Northeast 381 438 15,000  Level Chicago Center
Tue 08:08:02 PM 40.9206 -84.5806 53° Northeast 382 440 15,000 -387 Level Chicago Center
Tue 08:09:04 PM 40.9853 -84.4708 52° Northeast 381 438 14,200 -968 Descending Chicago Center
Tue 08:10:06 PM 41.0828 -84.3628 40° Northeast 382 440 13,000 -896 Descending Chicago Center
Tue 08:11:38 PM 41.2069 -84.2269 39° Northeast 381 438 11,900 -701 Descending Indianapolis Center
Tue 08:12:40 PM 41.2858 -84.1397 40° Northeast 374 430 11,200 -1,200 Descending Indianapolis Center
Tue 08:13:43 PM 41.3603 -84.0578 40° Northeast 341 392 9,400 -1,824 Descending Cleveland Center
Tue 08:14:45 PM 41.4278 -83.9861 39° Northeast 317 365 7,400 -2,177 Descending Cleveland Center
Tue 08:15:47 PM 41.4767 -83.8994 53° Northeast 292 336 4,900 -2,177 Descending Cleveland Center
Tue 08:16:49 PM 41.5514 -83.8333 34° Northeast 283 326 2,900 -1,258 Descending Cleveland Center
Tue 08:17:51 PM 41.5839 -83.7650 58° Northeast 246 283 2,300 -435 Descending Cleveland Center
Tue 08:18:53 PM 41.6011 -83.6897 73° East 226 260 2,000 -145 Descending Cleveland Center
Tue 08:19:55 PM 41.6456 -83.6742 15° North 229 264 2,000  Level Cleveland Center
Tue 08:20:57 PM 41.6197 -83.7100 226° Southwest 173 199 2,000 -242 Level Cleveland Center
Tue 08:21:59 PM 41.6069 -83.7469 245° Southwest 134 154 1,500 -484 Descending Cleveland Center

Login

Don't have an account? Register now (free) for customized features, flight alerts, and more!